sensor_id;sensor_type;location;lat;lon;timestamp;pressure;altitude;pressure_sealevel;temperature;humidity
75938;BME280;64615;32.062;34.834;2023-03-23T09:22:50;100735.13;;;21.49;46.00
75938;BME280;64615;32.062;34.834;2023-03-23T09:25:18;100726.25;;;21.54;46.61
75938;BME280;64615;32.062;34.834;2023-03-23T09:27:49;100710.81;;;21.54;46.70
75938;BME280;64615;32.062;34.834;2023-03-23T09:30:19;100701.88;;;21.54;46.81
75938;BME280;64615;32.062;34.834;2023-03-23T09:32:46;100687.63;;;21.64;47.52
75938;BME280;64615;32.062;34.834;2023-03-23T09:35:14;100682.69;;;22.04;48.29
75938;BME280;64615;32.062;34.834;2023-03-23T09:37:44;100687.78;;;22.22;50.00
75938;BME280;64615;32.062;34.834;2023-03-23T09:40:15;100684.16;;;22.12;49.90
75938;BME280;64615;32.062;34.834;2023-03-23T09:45:33;100716.50;;;21.96;49.44
75938;BME280;64615;32.062;34.834;2023-03-23T09:48:24;100722.91;;;21.90;49.51
75938;BME280;64615;32.062;34.834;2023-03-23T09:51:11;100716.09;;;21.88;49.15
75938;BME280;64615;32.062;34.834;2023-03-23T09:53:43;100710.63;;;21.83;49.45
75938;BME280;64615;32.062;34.834;2023-03-23T09:56:14;100693.81;;;21.81;49.19
75938;BME280;64615;32.062;34.834;2023-03-23T10:01:20;100688.41;;;21.81;49.51
75938;BME280;64615;32.062;34.834;2023-03-23T10:03:47;100683.78;;;21.81;49.39
75938;BME280;64615;32.062;34.834;2023-03-23T10:06:17;100687.88;;;21.84;49.30
75938;BME280;64615;32.062;34.834;2023-03-23T10:08:51;100705.53;;;21.86;49.27
75938;BME280;64615;32.062;34.834;2023-03-23T10:14:05;100696.41;;;21.71;49.12
75938;BME280;64615;32.062;34.834;2023-03-23T10:16:42;100691.47;;;21.68;48.94
75938;BME280;64615;32.062;34.834;2023-03-23T10:19:29;100692.06;;;21.70;48.83
75938;BME280;64615;32.062;34.834;2023-03-23T10:22:05;100690.97;;;21.71;48.81
75938;BME280;64615;32.062;34.834;2023-03-23T10:27:28;100704.00;;;21.74;48.95
75938;BME280;64615;32.062;34.834;2023-03-23T10:30:03;100702.13;;;21.74;48.95
75938;BME280;64615;32.062;34.834;2023-03-23T10:32:51;100709.72;;;21.77;48.76
75938;BME280;64615;32.062;34.834;2023-03-23T10:35:28;100710.31;;;21.79;48.59
75938;BME280;64615;32.062;34.834;2023-03-23T10:38:02;100707.38;;;21.81;48.77
75938;BME280;64615;32.062;34.834;2023-03-23T10:40:30;100706.84;;;21.84;48.70
75938;BME280;64615;32.062;34.834;2023-03-23T10:43:00;100701.41;;;21.84;48.68
75938;BME280;64615;32.062;34.834;2023-03-23T10:45:29;100699.53;;;21.84;48.66
75938;BME280;64615;32.062;34.834;2023-03-23T10:50:38;100701.19;;;21.85;48.61
75938;BME280;64615;32.062;34.834;2023-03-23T10:53:23;100687.88;;;21.84;48.68
75938;BME280;64615;32.062;34.834;2023-03-23T10:55:51;100687.38;;;21.87;48.50
75938;BME280;64615;32.062;34.834;2023-03-23T10:58:32;100690.09;;;21.87;48.63
75938;BME280;64615;32.062;34.834;2023-03-23T11:01:01;100683.56;;;21.88;48.59
75938;BME280;64615;32.062;34.834;2023-03-23T11:06:07;100680.38;;;21.91;48.29
75938;BME280;64615;32.062;34.834;2023-03-23T11:08:38;100685.78;;;21.91;48.29
75938;BME280;64615;32.062;34.834;2023-03-23T11:11:28;100679.56;;;21.90;48.24
75938;BME280;64615;32.062;34.834;2023-03-23T11:14:00;100682.03;;;21.92;48.40
75938;BME280;64615;32.062;34.834;2023-03-23T11:16:29;100676.59;;;21.92;48.35
75938;BME280;64615;32.062;34.834;2023-03-23T11:18:57;100666.34;;;21.94;48.31
75938;BME280;64615;32.062;34.834;2023-03-23T11:21:25;100655.75;;;21.92;48.21
75938;BME280;64615;32.062;34.834;2023-03-23T11:23:58;100660.66;;;21.95;48.31
75938;BME280;64615;32.062;34.834;2023-03-23T11:26:32;100661.25;;;21.98;48.28
75938;BME280;64615;32.062;34.834;2023-03-23T11:31:43;100663.13;;;21.97;48.19
75938;BME280;64615;32.062;34.834;2023-03-23T11:35:03;100656.88;;;21.96;48.14
75938;BME280;64615;32.062;34.834;2023-03-23T11:39:53;100630.59;;;21.97;48.12
75938;BME280;64615;32.062;34.834;2023-03-23T11:42:49;100620.00;;;21.95;48.21
75938;BME280;64615;32.062;34.834;2023-03-23T11:45:22;100611.88;;;21.95;48.29
75938;BME280;64615;32.062;34.834;2023-03-23T11:50:25;100613.16;;;21.93;48.41
75938;BME280;64615;32.062;34.834;2023-03-23T11:58:07;100613.75;;;21.95;48.74
75938;BME280;64615;32.062;34.834;2023-03-23T12:00:48;100611.88;;;21.95;48.84
75938;BME280;64615;32.062;34.834;2023-03-23T12:14:47;100599.41;;;21.94;40.06
75938;BME280;64615;32.062;34.834;2023-03-23T12:23:23;100581.75;;;21.92;36.95
75938;BME280;64615;32.062;34.834;2023-03-23T12:26:12;100563.91;;;21.96;36.40
75938;BME280;64615;32.062;34.834;2023-03-23T12:34:32;100523.69;;;21.88;35.99
75938;BME280;64615;32.062;34.834;2023-03-23T12:43:13;100525.16;;;21.95;35.71
75938;BME280;64615;32.062;34.834;2023-03-23T12:48:13;100525.66;;;21.92;36.95
75938;BME280;64615;32.062;34.834;2023-03-23T12:51:47;100529.41;;;21.91;37.42
75938;BME280;64615;32.062;34.834;2023-03-23T12:53:52;100536.47;;;21.92;37.87
75938;BME280;64615;32.062;34.834;2023-03-23T12:56:29;100539.19;;;21.92;38.37
75938;BME280;64615;32.062;34.834;2023-03-23T13:02:01;100536.97;;;21.89;39.04
75938;BME280;64615;32.062;34.834;2023-03-23T13:04:36;100533.72;;;21.87;40.05
75938;BME280;64615;32.062;34.834;2023-03-23T13:07:05;100532.91;;;21.87;40.47
75938;BME280;64615;32.062;34.834;2023-03-23T13:09:53;100532.38;;;21.90;40.97
75938;BME280;64615;32.062;34.834;2023-03-23T13:12:20;100528.03;;;21.89;41.28
75938;BME280;64615;32.062;34.834;2023-03-23T13:18:00;100536.72;;;21.91;41.37
75938;BME280;64615;32.062;34.834;2023-03-23T13:23:42;100532.13;;;21.91;42.16
75938;BME280;64615;32.062;34.834;2023-03-23T13:26:11;100523.19;;;21.91;42.18
75938;BME280;64615;32.062;34.834;2023-03-23T13:31:27;100525.31;;;21.89;42.48
75938;BME280;64615;32.062;34.834;2023-03-23T13:34:12;100521.25;;;21.86;42.98
75938;BME280;64615;32.062;34.834;2023-03-23T13:36:58;100528.81;;;21.84;43.02
75938;BME280;64615;32.062;34.834;2023-03-23T13:39:29;100521.75;;;21.83;43.23
75938;BME280;64615;32.062;34.834;2023-03-23T13:42:28;100538.81;;;21.84;43.31
75938;BME280;64615;32.062;34.834;2023-03-23T13:45:19;100542.59;;;21.83;43.38
75938;BME280;64615;32.062;34.834;2023-03-23T13:47:46;100533.13;;;21.80;43.54
75938;BME280;64615;32.062;34.834;2023-03-23T13:50:26;100532.28;;;21.80;43.42
75938;BME280;64615;32.062;34.834;2023-03-23T13:52:54;100524.75;;;21.82;43.83
75938;BME280;64615;32.062;34.834;2023-03-23T13:57:58;100497.84;;;21.75;43.58
75938;BME280;64615;32.062;34.834;2023-03-23T14:00:44;100496.22;;;21.74;43.76
75938;BME280;64615;32.062;34.834;2023-03-23T14:03:26;100497.81;;;21.70;43.83
75938;BME280;64615;32.062;34.834;2023-03-23T14:08:44;100494.28;;;21.70;44.02
75938;BME280;64615;32.062;34.834;2023-03-23T14:11:17;100488.03;;;21.69;43.96
75938;BME280;64615;32.062;34.834;2023-03-23T14:14:00;100485.31;;;21.69;44.16
75938;BME280;64615;32.062;34.834;2023-03-23T14:19:03;100470.97;;;21.69;44.31
75938;BME280;64615;32.062;34.834;2023-03-23T14:21:35;100482.88;;;21.68;43.99
75938;BME280;64615;32.062;34.834;2023-03-23T14:24:15;100491.81;;;21.68;44.22
75938;BME280;64615;32.062;34.834;2023-03-23T14:26:40;100479.09;;;21.69;44.00
75938;BME280;64615;32.062;34.834;2023-03-23T14:29:10;100486.41;;;21.68;44.00
75938;BME280;64615;32.062;34.834;2023-03-23T14:31:36;100488.84;;;21.70;44.02
75938;BME280;64615;32.062;34.834;2023-03-23T14:34:05;100489.09;;;21.68;44.14
75938;BME280;64615;32.062;34.834;2023-03-23T14:36:36;100482.63;;;21.69;44.21
75938;BME280;64615;32.062;34.834;2023-03-23T14:41:40;100471.50;;;21.66;44.35
75938;BME280;64615;32.062;34.834;2023-03-23T14:44:11;100476.34;;;21.64;44.65
75938;BME280;64615;32.062;34.834;2023-03-23T14:46:38;100473.63;;;21.64;44.39
75938;BME280;64615;32.062;34.834;2023-03-23T14:49:04;100481.19;;;21.62;44.18
75938;BME280;64615;32.062;34.834;2023-03-23T14:51:31;100473.59;;;21.59;44.49
75938;BME280;64615;32.062;34.834;2023-03-23T14:53:59;100477.94;;;21.60;44.79
75938;BME280;64615;32.062;34.834;2023-03-23T14:56:35;100468.41;;;21.57;44.67
75938;BME280;64615;32.062;34.834;2023-03-23T14:59:06;100481.13;;;21.56;44.70
75938;BME280;64615;32.062;34.834;2023-03-23T15:01:36;100474.66;;;21.58;44.81
75938;BME280;64615;32.062;34.834;2023-03-23T15:06:41;100478.25;;;21.68;45.50
75938;BME280;64615;32.062;34.834;2023-03-23T15:09:14;100469.13;;;21.74;45.73
75938;BME280;64615;32.062;34.834;2023-03-23T15:11:41;100468.03;;;21.75;44.73
75938;BME280;64615;32.062;34.834;2023-03-23T15:14:16;100467.47;;;21.73;44.68
75938;BME280;64615;32.062;34.834;2023-03-23T15:16:54;100455.81;;;21.73;44.98
75938;BME280;64615;32.062;34.834;2023-03-23T15:19:28;100455.56;;;21.74;45.19
75938;BME280;64615;32.062;34.834;2023-03-23T15:22:05;100451.22;;;21.73;45.18
75938;BME280;64615;32.062;34.834;2023-03-23T15:24:34;100462.34;;;21.72;45.08
75938;BME280;64615;32.062;34.834;2023-03-23T15:29:31;100456.94;;;21.77;45.38
75938;BME280;64615;32.062;34.834;2023-03-23T15:31:57;100462.09;;;21.78;45.48
75938;BME280;64615;32.062;34.834;2023-03-23T15:34:30;100459.91;;;21.75;45.65
75938;BME280;64615;32.062;34.834;2023-03-23T15:37:00;100453.69;;;21.75;45.35
75938;BME280;64615;32.062;34.834;2023-03-23T15:39:27;100438.50;;;21.74;45.00
75938;BME280;64615;32.062;34.834;2023-03-23T15:41:54;100442.59;;;21.76;45.34
75938;BME280;64615;32.062;34.834;2023-03-23T15:44:24;100443.94;;;21.79;45.31
75938;BME280;64615;32.062;34.834;2023-03-23T15:46:52;100455.66;;;21.84;45.46
75938;BME280;64615;32.062;34.834;2023-03-23T15:49:18;100453.78;;;21.90;45.48
75938;BME280;64615;32.062;34.834;2023-03-23T15:51:44;100457.63;;;21.94;45.25
75938;BME280;64615;32.062;34.834;2023-03-23T15:54:13;100466.59;;;21.94;45.77
75938;BME280;64615;32.062;34.834;2023-03-23T15:56:40;100464.53;;;22.54;45.28
75938;BME280;64615;32.062;34.834;2023-03-23T15:59:07;100470.94;;;22.85;45.89
75938;BME280;64615;32.062;34.834;2023-03-23T16:01:33;100480.78;;;23.06;46.62
75938;BME280;64615;32.062;34.834;2023-03-23T16:04:06;100477.28;;;23.26;47.43
75938;BME280;64615;32.062;34.834;2023-03-23T16:06:34;100486.34;;;23.56;47.31
75938;BME280;64615;32.062;34.834;2023-03-23T16:09:00;100481.47;;;23.58;47.67
75938;BME280;64615;32.062;34.834;2023-03-23T16:11:28;100477.63;;;23.39;47.77
75938;BME280;64615;32.062;34.834;2023-03-23T16:13:54;100485.38;;;23.00;47.14
75938;BME280;64615;32.062;34.834;2023-03-23T16:16:22;100481.78;;;22.79;46.51
75938;BME280;64615;32.062;34.834;2023-03-23T16:18:50;100487.09;;;22.64;46.56
75938;BME280;64615;32.062;34.834;2023-03-23T16:21:16;100475.63;;;22.52;47.21
75938;BME280;64615;32.062;34.834;2023-03-23T16:23:41;100475.81;;;22.35;47.17
75938;BME280;64615;32.062;34.834;2023-03-23T16:26:09;100481.75;;;22.32;47.20
75938;BME280;64615;32.062;34.834;2023-03-23T16:28:35;100486.59;;;22.25;46.71
75938;BME280;64615;32.062;34.834;2023-03-23T16:31:01;100492.56;;;22.22;47.27
75938;BME280;64615;32.062;34.834;2023-03-23T16:33:27;100481.69;;;22.22;47.25
75938;BME280;64615;32.062;34.834;2023-03-23T16:35:52;100493.06;;;22.19;46.95
75938;BME280;64615;32.062;34.834;2023-03-23T16:38:18;100493.91;;;22.25;46.63
75938;BME280;64615;32.062;34.834;2023-03-23T16:40:45;100494.97;;;22.19;46.94
75938;BME280;64615;32.062;34.834;2023-03-23T16:43:11;100478.97;;;22.17;46.15
75938;BME280;64615;32.062;34.834;2023-03-23T16:45:39;100489.81;;;22.17;46.53
75938;BME280;64615;32.062;34.834;2023-03-23T16:48:06;100487.88;;;22.13;46.18
75938;BME280;64615;32.062;34.834;2023-03-23T16:50:33;100489.53;;;22.14;47.04
75938;BME280;64615;32.062;34.834;2023-03-23T16:52:58;100499.84;;;22.17;47.27
75938;BME280;64615;32.062;34.834;2023-03-23T16:55:25;100498.72;;;22.13;48.11
75938;BME280;64615;32.062;34.834;2023-03-23T16:57:52;100486.28;;;22.17;49.12
75938;BME280;64615;32.062;34.834;2023-03-23T17:00:18;100493.59;;;22.16;48.91
75938;BME280;64615;32.062;34.834;2023-03-23T17:02:46;100493.03;;;22.14;48.44
75938;BME280;64615;32.062;34.834;2023-03-23T17:05:12;100497.34;;;22.10;48.10
75938;BME280;64615;32.062;34.834;2023-03-23T17:07:39;100500.16;;;21.93;47.80
75938;BME280;64615;32.062;34.834;2023-03-23T17:10:07;100507.38;;;21.83;47.08
75938;BME280;64615;32.062;34.834;2023-03-23T17:12:33;100521.47;;;21.80;46.10
75938;BME280;64615;32.062;34.834;2023-03-23T17:14:59;100511.47;;;22.54;47.08
75938;BME280;64615;32.062;34.834;2023-03-23T17:17:25;100506.03;;;23.01;49.07
75938;BME280;64615;32.062;34.834;2023-03-23T17:19:50;100499.78;;;23.01;49.81
75938;BME280;64615;32.062;34.834;2023-03-23T17:22:16;100507.16;;;23.15;50.68
75938;BME280;64615;32.062;34.834;2023-03-23T17:24:42;100510.66;;;23.06;51.03
75938;BME280;64615;32.062;34.834;2023-03-23T17:27:08;100522.28;;;22.96;51.55
75938;BME280;64615;32.062;34.834;2023-03-23T17:29:34;100526.63;;;22.92;51.70
75938;BME280;64615;32.062;34.834;2023-03-23T17:32:00;100526.09;;;23.00;52.23
75938;BME280;64615;32.062;34.834;2023-03-23T17:34:25;100539.69;;;23.05;52.77
75938;BME280;64615;32.062;34.834;2023-03-23T17:36:51;100539.97;;;23.09;54.37
75938;BME280;64615;32.062;34.834;2023-03-23T17:39:16;100539.16;;;23.08;53.75
75938;BME280;64615;32.062;34.834;2023-03-23T17:41:42;100539.66;;;23.00;53.15
75938;BME280;64615;32.062;34.834;2023-03-23T17:44:08;100544.28;;;23.00;52.52
75938;BME280;64615;32.062;34.834;2023-03-23T17:46:34;100543.72;;;22.98;52.55
75938;BME280;64615;32.062;34.834;2023-03-23T17:48:59;100539.66;;;22.95;52.47
75938;BME280;64615;32.062;34.834;2023-03-23T17:51:25;100536.69;;;22.97;52.39
75938;BME280;64615;32.062;34.834;2023-03-23T17:53:51;100537.72;;;22.86;52.61
75938;BME280;64615;32.062;34.834;2023-03-23T17:56:16;100538.91;;;22.63;52.14
75938;BME280;64615;32.062;34.834;2023-03-23T17:58:42;100552.19;;;22.59;50.79
75938;BME280;64615;32.062;34.834;2023-03-23T18:01:08;100551.38;;;22.59;50.79
75938;BME280;64615;32.062;34.834;2023-03-23T18:03:33;100545.38;;;22.57;50.93
75938;BME280;64615;32.062;34.834;2023-03-23T18:06:01;100544.31;;;22.58;50.88
75938;BME280;64615;32.062;34.834;2023-03-23T18:08:28;100547.88;;;22.63;50.93
75938;BME280;64615;32.062;34.834;2023-03-23T18:10:55;100548.41;;;22.60;50.84
75938;BME280;64615;32.062;34.834;2023-03-23T18:13:26;100548.66;;;22.59;50.60
75938;BME280;64615;32.062;34.834;2023-03-23T18:15:53;100551.66;;;22.62;49.87
75938;BME280;64615;32.062;34.834;2023-03-23T18:18:19;100567.38;;;22.55;50.48
75938;BME280;64615;32.062;34.834;2023-03-23T18:20:45;100565.47;;;22.56;50.55
75938;BME280;64615;32.062;34.834;2023-03-23T18:23:11;100554.63;;;22.56;50.42
75938;BME280;64615;32.062;34.834;2023-03-23T18:25:37;100557.34;;;22.56;50.67
75938;BME280;64615;32.062;34.834;2023-03-23T18:28:03;100563.53;;;22.56;50.66
75938;BME280;64615;32.062;34.834;2023-03-23T18:30:30;100556.50;;;22.55;50.59
75938;BME280;64615;32.062;34.834;2023-03-23T18:32:55;100564.09;;;22.53;50.70
75938;BME280;64615;32.062;34.834;2023-03-23T18:35:21;100556.47;;;22.50;50.84
75938;BME280;64615;32.062;34.834;2023-03-23T18:37:47;100563.50;;;22.51;50.72
75938;BME280;64615;32.062;34.834;2023-03-23T18:40:13;100550.78;;;22.52;50.74
75938;BME280;64615;32.062;34.834;2023-03-23T18:42:42;100558.91;;;22.52;50.70
75938;BME280;64615;32.062;34.834;2023-03-23T18:45:09;100565.41;;;22.51;50.85
75938;BME280;64615;32.062;34.834;2023-03-23T18:47:35;100564.63;;;22.50;50.92
75938;BME280;64615;32.062;34.834;2023-03-23T18:50:08;100568.41;;;22.49;50.91
75938;BME280;64615;32.062;34.834;2023-03-23T18:52:34;100569.47;;;22.48;50.85
75938;BME280;64615;32.062;34.834;2023-03-23T18:55:00;100574.38;;;22.51;50.70
75938;BME280;64615;32.062;34.834;2023-03-23T18:57:26;100562.69;;;22.51;50.70
75938;BME280;64615;32.062;34.834;2023-03-23T18:59:52;100561.34;;;22.48;50.62
75938;BME280;64615;32.062;34.834;2023-03-23T19:02:18;100564.72;;;22.65;50.17
75938;BME280;64615;32.062;34.834;2023-03-23T19:04:45;100559.28;;;22.65;49.58
75938;BME280;64615;32.062;34.834;2023-03-23T19:07:12;100556.25;;;22.62;49.02
75938;BME280;64615;32.062;34.834;2023-03-23T19:09:38;100555.94;;;22.53;49.01
75938;BME280;64615;32.062;34.834;2023-03-23T19:12:06;100555.94;;;22.53;48.76
75938;BME280;64615;32.062;34.834;2023-03-23T19:14:33;100555.38;;;22.51;48.50
75938;BME280;64615;32.062;34.834;2023-03-23T19:16:59;100556.19;;;22.52;48.54
75938;BME280;64615;32.062;34.834;2023-03-23T19:19:25;100548.84;;;22.47;48.26
75938;BME280;64615;32.062;34.834;2023-03-23T19:21:51;100552.63;;;22.46;48.57
75938;BME280;64615;32.062;34.834;2023-03-23T19:24:16;100553.41;;;22.42;48.35
75938;BME280;64615;32.062;34.834;2023-03-23T19:26:43;100552.88;;;22.39;48.74
75938;BME280;64615;32.062;34.834;2023-03-23T19:29:12;100544.72;;;22.34;48.76
75938;BME280;64615;32.062;34.834;2023-03-23T19:31:38;100543.88;;;22.34;48.53
75938;BME280;64615;32.062;34.834;2023-03-23T19:34:05;100550.09;;;22.29;48.37
75938;BME280;64615;32.062;34.834;2023-03-23T19:36:31;100546.56;;;22.29;48.21
75938;BME280;64615;32.062;34.834;2023-03-23T19:38:57;100549.78;;;22.26;48.46
75938;BME280;64615;32.062;34.834;2023-03-23T19:41:24;100548.41;;;22.23;48.52
75938;BME280;64615;32.062;34.834;2023-03-23T19:43:50;100555.97;;;22.21;48.33
75938;BME280;64615;32.062;34.834;2023-03-23T19:46:16;100555.16;;;22.21;48.37
75938;BME280;64615;32.062;34.834;2023-03-23T19:48:42;100550.00;;;22.19;48.52
75938;BME280;64615;32.062;34.834;2023-03-23T19:51:10;100551.09;;;22.18;48.69
75938;BME280;64615;32.062;34.834;2023-03-23T19:53:36;100557.59;;;22.17;48.56
75938;BME280;64615;32.062;34.834;2023-03-23T19:56:03;100552.66;;;22.14;48.59
75938;BME280;64615;32.062;34.834;2023-03-23T19:58:29;100562.44;;;22.15;48.46
75938;BME280;64615;32.062;34.834;2023-03-23T20:00:54;100556.78;;;22.17;48.33
75938;BME280;64615;32.062;34.834;2023-03-23T20:03:21;100559.44;;;22.12;48.49
75938;BME280;64615;32.062;34.834;2023-03-23T20:05:47;100549.91;;;22.09;48.45
75938;BME280;64615;32.062;34.834;2023-03-23T20:08:13;100560.75;;;22.09;48.41
75938;BME280;64615;32.062;34.834;2023-03-23T20:10:39;100566.47;;;22.08;48.32
75938;BME280;64615;32.062;34.834;2023-03-23T20:13:10;100555.28;;;22.04;48.38
75938;BME280;64615;32.062;34.834;2023-03-23T20:15:36;100550.44;;;22.06;47.98
75938;BME280;64615;32.062;34.834;2023-03-23T20:18:02;100554.75;;;22.02;48.10
75938;BME280;64615;32.062;34.834;2023-03-23T20:20:28;100544.44;;;22.04;48.05
75938;BME280;64615;32.062;34.834;2023-03-23T20:22:53;100549.63;;;22.06;47.98
75938;BME280;64615;32.062;34.834;2023-03-23T20:25:19;100541.53;;;22.11;47.88
75938;BME280;64615;32.062;34.834;2023-03-23T20:27:45;100534.22;;;22.11;47.90
75938;BME280;64615;32.062;34.834;2023-03-23T20:30:11;100529.56;;;22.07;48.00
75938;BME280;64615;32.062;34.834;2023-03-23T20:32:37;100530.66;;;22.06;48.07
75938;BME280;64615;32.062;34.834;2023-03-23T20:35:07;100532.28;;;22.07;48.26
75938;BME280;64615;32.062;34.834;2023-03-23T20:37:35;100523.34;;;22.06;48.12
75938;BME280;64615;32.062;34.834;2023-03-23T20:40:07;100518.16;;;22.05;48.25
75938;BME280;64615;32.062;34.834;2023-03-23T20:42:34;100517.91;;;22.06;48.02
75938;BME280;64615;32.062;34.834;2023-03-23T20:45:00;100521.16;;;22.03;48.06
75938;BME280;64615;32.062;34.834;2023-03-23T20:47:26;100516.81;;;22.02;48.13
75938;BME280;64615;32.062;34.834;2023-03-23T20:49:53;100519.81;;;22.06;48.04
75938;BME280;64615;32.062;34.834;2023-03-23T20:52:21;100511.09;;;22.04;48.07
75938;BME280;64615;32.062;34.834;2023-03-23T20:54:48;100513.56;;;22.05;47.96
75938;BME280;64615;32.062;34.834;2023-03-23T20:57:15;100511.91;;;22.04;47.92
75938;BME280;64615;32.062;34.834;2023-03-23T20:59:41;100510.34;;;22.08;48.08
75938;BME280;64615;32.062;34.834;2023-03-23T21:02:09;100506.25;;;22.06;48.45
75938;BME280;64615;32.062;34.834;2023-03-23T21:04:36;100507.59;;;22.03;48.99
75938;BME280;64615;32.062;34.834;2023-03-23T21:07:04;100507.59;;;22.03;48.74
75938;BME280;64615;32.062;34.834;2023-03-23T21:09:30;100502.19;;;22.03;48.40
75938;BME280;64615;32.062;34.834;2023-03-23T21:11:56;100496.47;;;22.05;48.77
75938;BME280;64615;32.062;34.834;2023-03-23T21:14:23;100501.44;;;22.13;48.61
75938;BME280;64615;32.062;34.834;2023-03-23T21:16:49;100500.91;;;22.16;54.11
75938;BME280;64615;32.062;34.834;2023-03-23T21:19:15;100502.81;;;22.20;51.68
75938;BME280;64615;32.062;34.834;2023-03-23T21:21:41;100494.19;;;22.23;49.63
75938;BME280;64615;32.062;34.834;2023-03-23T21:24:08;100500.69;;;22.22;49.53
75938;BME280;64615;32.062;34.834;2023-03-23T21:26:35;100504.47;;;22.21;49.59
75938;BME280;64615;32.062;34.834;2023-03-23T21:29:01;100501.75;;;22.21;49.43
75938;BME280;64615;32.062;34.834;2023-03-23T21:31:29;100504.22;;;22.23;49.74
75938;BME280;64615;32.062;34.834;2023-03-23T21:33:59;100505.00;;;22.18;49.90
75938;BME280;64615;32.062;34.834;2023-03-23T21:36:25;100496.28;;;22.16;49.86
75938;BME280;64615;32.062;34.834;2023-03-23T21:38:51;100499.53;;;22.13;49.68
75938;BME280;64615;32.062;34.834;2023-03-23T21:41:17;100497.66;;;22.14;50.08
75938;BME280;64615;32.062;34.834;2023-03-23T21:43:44;100501.16;;;22.14;50.08
75938;BME280;64615;32.062;34.834;2023-03-23T21:46:11;100495.72;;;22.14;50.03
75938;BME280;64615;32.062;34.834;2023-03-23T21:48:43;100496.56;;;22.15;50.34
75938;BME280;64615;32.062;34.834;2023-03-23T21:51:12;100499.78;;;22.12;50.37
75938;BME280;64615;32.062;34.834;2023-03-23T21:53:38;100506.94;;;22.23;57.37
75938;BME280;64615;32.062;34.834;2023-03-23T21:56:07;100504.50;;;22.26;56.85
75938;BME280;64615;32.062;34.834;2023-03-23T21:58:35;100498.25;;;22.26;55.57
75938;BME280;64615;32.062;34.834;2023-03-23T22:01:03;100501.19;;;22.19;55.76
75938;BME280;64615;32.062;34.834;2023-03-23T22:03:30;100495.72;;;22.14;55.40
75938;BME280;64615;32.062;34.834;2023-03-23T22:06:03;100500.38;;;22.14;55.52
75938;BME280;64615;32.062;34.834;2023-03-23T22:08:30;100495.44;;;22.11;55.37
75938;BME280;64615;32.062;34.834;2023-03-23T22:11:00;100497.88;;;22.07;55.16
75938;BME280;64615;32.062;34.834;2023-03-23T22:13:28;100490.81;;;22.06;55.37
75938;BME280;64615;32.062;34.834;2023-03-23T22:15:56;100495.66;;;22.04;55.51
75938;BME280;64615;32.062;34.834;2023-03-23T22:18:22;100487.34;;;22.16;59.60
75938;BME280;64615;32.062;34.834;2023-03-23T22:20:47;100496.28;;;22.16;61.41
75938;BME280;64615;32.062;34.834;2023-03-23T22:23:13;100491.97;;;22.20;58.60
75938;BME280;64615;32.062;34.834;2023-03-23T22:25:39;100493.94;;;22.30;59.37
75938;BME280;64615;32.062;34.834;2023-03-23T22:28:05;100497.50;;;22.35;60.84
75938;BME280;64615;32.062;34.834;2023-03-23T22:30:31;100491.00;;;22.36;64.15
75938;BME280;64615;32.062;34.834;2023-03-23T22:32:58;100491.25;;;22.35;64.15
75938;BME280;64615;32.062;34.834;2023-03-23T22:35:24;100492.84;;;22.26;62.16
75938;BME280;64615;32.062;34.834;2023-03-23T22:37:50;100492.50;;;22.17;60.92
75938;BME280;64615;32.062;34.834;2023-03-23T22:40:16;100493.31;;;22.13;59.26
75938;BME280;64615;32.062;34.834;2023-03-23T22:42:44;100487.84;;;22.08;58.63
75938;BME280;64615;32.062;34.834;2023-03-23T22:45:10;100486.16;;;22.02;58.58
75938;BME280;64615;32.062;34.834;2023-03-23T22:47:36;100476.66;;;21.99;58.41
75938;BME280;64615;32.062;34.834;2023-03-23T22:50:07;100486.13;;;21.96;58.26
75938;BME280;64615;32.062;34.834;2023-03-23T22:52:33;100490.97;;;21.94;57.93
75938;BME280;64615;32.062;34.834;2023-03-23T22:55:05;100484.16;;;21.92;58.02
75938;BME280;64615;32.062;34.834;2023-03-23T22:57:32;100485.50;;;21.89;57.98
75938;BME280;64615;32.062;34.834;2023-03-23T22:59:58;100475.72;;;21.88;57.88
75938;BME280;64615;32.062;34.834;2023-03-23T23:02:24;100474.91;;;21.88;57.79
75938;BME280;64615;32.062;34.834;2023-03-23T23:04:50;100476.53;;;21.89;57.75
75938;BME280;64615;32.062;34.834;2023-03-23T23:07:17;100481.72;;;21.90;57.27
75938;BME280;64615;32.062;34.834;2023-03-23T23:09:44;100480.63;;;21.91;57.29
75938;BME280;64615;32.062;34.834;2023-03-23T23:12:11;100479.81;;;21.91;57.20
75938;BME280;64615;32.062;34.834;2023-03-23T23:14:40;100474.41;;;21.91;57.16
75938;BME280;64615;32.062;34.834;2023-03-23T23:17:07;100478.47;;;21.93;56.98
75938;BME280;64615;32.062;34.834;2023-03-23T23:19:33;100470.63;;;21.92;56.82
75938;BME280;64615;32.062;34.834;2023-03-23T23:21:59;100473.06;;;21.93;56.82
75938;BME280;64615;32.062;34.834;2023-03-23T23:24:25;100473.91;;;21.94;56.71
75938;BME280;64615;32.062;34.834;2023-03-23T23:26:51;100483.66;;;21.95;56.66
75938;BME280;64615;32.062;34.834;2023-03-23T23:29:17;100481.53;;;21.97;56.42
75938;BME280;64615;32.062;34.834;2023-03-23T23:31:43;100481.53;;;21.97;56.34
75938;BME280;64615;32.062;34.834;2023-03-23T23:34:11;100469.66;;;22.03;56.29
75938;BME280;64615;32.062;34.834;2023-03-23T23:36:37;100474.28;;;22.08;56.31
75938;BME280;64615;32.062;34.834;2023-03-23T23:39:03;100469.72;;;22.13;56.15
75938;BME280;64615;32.062;34.834;2023-03-23T23:41:32;100472.13;;;22.10;56.08